Time;durP1;ratioP1;P1;durP2;ratioP2;P2;SDS_P1;SDS_P2;PMS_P1;PMS_P2;Temp;Humidity;BMP_temperature;BMP_pressure;BME280_temperature;BME280_humidity;BME280_pressure;Samples;Min_cycle;Max_cycle;Signal;HPM_P1;HPM_P2
2022/01/05 00:02:09;;;;;;;8.65;1.63;;;3.60;99.90;;;;;;5126265;27;20483;-72
2022/01/05 00:04:35;;;;;;;7.47;1.35;;;3.50;99.90;;;;;;5113207;27;20039;-73
2022/01/05 00:07:02;;;;;;;5.47;1.50;;;3.50;99.90;;;;;;5116359;28;20088;-72
2022/01/05 00:09:28;;;;;;;4.93;0.80;;;3.50;99.90;;;;;;5112722;28;20483;-72
2022/01/05 00:11:53;;;;;;;5.15;1.23;;;3.50;99.90;;;;;;5141796;27;20042;-72
2022/01/05 00:14:19;;;;;;;9.43;1.45;;;3.40;99.90;;;;;;5092671;28;20579;-72
2022/01/05 00:16:44;;;;;;;6.43;0.90;;;3.20;99.90;;;;;;5144399;27;20084;-72
2022/01/05 00:19:10;;;;;;;6.82;1.30;;;3.40;99.90;;;;;;5093708;28;20074;-72
2022/01/05 00:21:36;;;;;;;9.48;1.10;;;3.40;99.90;;;;;;5112068;28;20039;-72
2022/01/05 00:24:02;;;;;;;8.57;1.45;;;3.40;99.90;;;;;;5146599;27;20035;-72
2022/01/05 00:26:27;;;;;;;8.80;1.40;;;3.30;99.90;;;;;;5114394;28;20042;-72
2022/01/05 00:28:54;;;;;;;7.40;1.15;;;3.30;99.90;;;;;;5143489;27;20039;-72
2022/01/05 00:31:20;;;;;;;6.07;1.20;;;3.20;99.90;;;;;;5095203;28;20044;-73
2022/01/05 00:33:45;;;;;;;5.70;1.42;;;3.20;99.90;;;;;;5113015;28;20047;-72
2022/01/05 00:36:11;;;;;;;5.47;1.08;;;3.20;99.90;;;;;;5111410;28;20460;-72
2022/01/05 00:38:37;;;;;;;5.32;1.10;;;3.00;99.90;;;;;;5107870;28;20036;-72
2022/01/05 00:41:04;;;;;;;8.82;1.60;;;3.10;99.90;;;;;;5091858;28;20040;-72
2022/01/05 00:43:30;;;;;;;10.18;2.03;;;3.10;99.90;;;;;;5075504;28;20071;-72
2022/01/05 00:45:56;;;;;;;8.63;1.30;;;3.00;99.90;;;;;;5075530;28;20048;-72
2022/01/05 00:48:22;;;;;;;7.43;1.48;;;3.00;99.90;;;;;;5114856;28;20085;-72
2022/01/05 00:50:47;;;;;;;9.30;1.92;;;2.90;99.90;;;;;;5112379;28;20043;-72
2022/01/05 00:53:13;;;;;;;10.93;1.58;;;2.90;99.90;;;;;;5126546;27;20040;-72
2022/01/05 00:55:39;;;;;;;7.95;1.50;;;3.00;99.90;;;;;;5125776;28;20040;-72
2022/01/05 00:58:04;;;;;;;10.73;2.05;;;3.00;99.90;;;;;;5128821;27;20090;-72
2022/01/05 01:00:30;;;;;;;8.38;1.17;;;3.00;99.90;;;;;;5111381;28;20084;-72
2022/01/05 01:02:55;;;;;;;8.32;1.42;;;3.10;99.90;;;;;;5114764;28;20399;-72
2022/01/05 01:05:21;;;;;;;8.13;1.63;;;3.20;99.90;;;;;;5138524;27;20126;-72
2022/01/05 01:07:47;;;;;;;10.05;1.60;;;3.30;99.90;;;;;;5104556;27;20411;-72
2022/01/05 01:10:13;;;;;;;11.13;2.03;;;3.20;99.90;;;;;;5144671;27;20100;-72
2022/01/05 01:12:39;;;;;;;14.00;2.17;;;3.20;99.90;;;;;;5109780;27;20123;-72
2022/01/05 01:15:08;;;;;;;9.52;1.50;;;3.40;99.90;;;;;;5095264;28;20122;-72
2022/01/05 01:17:33;;;;;;;9.10;1.65;;;3.30;99.90;;;;;;5095472;27;20040;-72
2022/01/05 01:19:59;;;;;;;8.95;1.35;;;3.30;99.90;;;;;;5095494;28;20122;-72
2022/01/05 01:22:28;;;;;;;5.78;1.00;;;3.30;99.90;;;;;;5112066;27;20032;-72
2022/01/05 01:24:53;;;;;;;5.68;1.38;;;3.40;99.90;;;;;;5112163;28;20484;-72
2022/01/05 01:27:19;;;;;;;13.15;2.13;;;3.60;99.90;;;;;;5105825;28;20042;-72
2022/01/05 01:29:44;;;;;;;9.57;2.08;;;3.50;99.90;;;;;;5098474;28;20077;-72
2022/01/05 01:32:10;;;;;;;7.50;0.77;;;3.50;99.90;;;;;;5122100;27;20127;-72
2022/01/05 01:34:36;;;;;;;6.50;1.27;;;3.60;99.90;;;;;;5095009;28;20036;-72
2022/01/05 01:37:01;;;;;;;7.60;1.08;;;3.50;99.90;;;;;;5095291;28;20484;-72
2022/01/05 01:39:27;;;;;;;8.20;1.38;;;3.60;99.90;;;;;;5110436;28;20039;-72
2022/01/05 01:41:53;;;;;;;6.07;1.00;;;3.50;99.90;;;;;;5147036;27;20032;-72
2022/01/05 01:44:18;;;;;;;10.45;1.65;;;3.50;99.90;;;;;;5149455;27;20032;-72
2022/01/05 01:46:44;;;;;;;6.35;1.50;;;3.40;99.90;;;;;;5113810;28;20047;-72
2022/01/05 01:49:10;;;;;;;12.07;1.70;;;3.60;99.90;;;;;;5132512;27;20046;-72
2022/01/05 01:51:35;;;;;;;8.55;1.25;;;3.40;99.90;;;;;;5131422;27;20043;-72
2022/01/05 01:54:03;;;;;;;8.93;1.20;;;3.40;99.90;;;;;;5149426;27;20483;-72
2022/01/05 01:56:31;;;;;;;9.52;2.50;;;3.50;99.90;;;;;;5095183;28;20039;-72
2022/01/05 01:58:57;;;;;;;11.63;1.80;;;3.40;99.90;;;;;;5077545;28;20543;-72
2022/01/05 02:01:23;;;;;;;8.40;1.35;;;3.40;99.90;;;;;;5095051;28;20130;-72
2022/01/05 02:03:48;;;;;;;10.18;1.60;;;3.40;99.90;;;;;;5097666;28;20036;-72
2022/01/05 02:06:14;;;;;;;8.65;1.70;;;3.30;99.90;;;;;;5130924;27;20494;-72
2022/01/05 02:08:40;;;;;;;7.25;2.03;;;3.30;99.90;;;;;;5110694;28;20085;-72
2022/01/05 02:11:08;;;;;;;11.23;2.00;;;3.40;99.90;;;;;;5114852;28;20038;-72
2022/01/05 02:13:34;;;;;;;7.57;1.35;;;3.40;99.90;;;;;;5076919;28;20040;-72
2022/01/05 02:16:00;;;;;;;8.30;1.35;;;3.30;99.90;;;;;;5094658;28;20423;-72
2022/01/05 02:21:14;;;;;;;7.53;1.40;;;3.20;99.90;;;;;;5128478;27;20036;-72
2022/01/05 02:23:39;;;;;;;8.98;1.40;;;3.20;99.90;;;;;;5112539;28;20428;-72
2022/01/05 02:26:07;;;;;;;8.88;1.33;;;3.20;99.90;;;;;;5097362;28;20038;-72
2022/01/05 02:28:33;;;;;;;10.70;1.65;;;3.40;99.90;;;;;;5094638;28;20567;-72
2022/01/05 02:30:59;;;;;;;9.23;1.83;;;3.20;99.90;;;;;;5093829;28;20075;-72
2022/01/05 02:33:25;;;;;;;9.73;1.77;;;3.30;99.90;;;;;;5093781;28;20044;-72
2022/01/05 02:35:51;;;;;;;11.98;1.63;;;3.30;99.90;;;;;;5076883;28;20047;-72
2022/01/05 02:38:21;;;;;;;11.73;1.90;;;3.20;99.90;;;;;;5076918;28;20043;-72
2022/01/05 02:40:49;;;;;;;6.82;1.20;;;3.20;99.90;;;;;;5110735;28;20403;-72
2022/01/05 02:43:15;;;;;;;7.82;1.85;;;3.20;99.90;;;;;;5095794;28;20495;-72
2022/01/05 02:45:42;;;;;;;7.65;1.23;;;3.20;99.90;;;;;;5111336;28;20492;-71
2022/01/05 02:48:07;;;;;;;9.77;1.35;;;3.20;99.90;;;;;;5097070;28;20450;-72
2022/01/05 02:50:33;;;;;;;10.43;1.52;;;3.20;99.90;;;;;;5147648;27;20101;-72
2022/01/05 02:52:59;;;;;;;9.43;1.60;;;3.20;99.90;;;;;;5112919;28;20040;-72
2022/01/05 02:55:24;;;;;;;9.23;1.27;;;3.20;99.90;;;;;;5095705;28;20079;-72
2022/01/05 02:57:50;;;;;;;9.45;1.60;;;3.20;99.90;;;;;;5112564;28;20046;-72
2022/01/05 03:00:17;;;;;;;10.90;1.80;;;3.30;99.90;;;;;;5120298;27;20040;-72
2022/01/05 03:02:43;;;;;;;11.05;2.08;;;3.20;99.90;;;;;;5076609;28;20051;-72
2022/01/05 03:05:09;;;;;;;10.38;1.40;;;3.30;99.90;;;;;;5100999;28;20079;-72
2022/01/05 03:07:39;;;;;;;11.88;2.17;;;3.30;99.90;;;;;;5112597;28;20075;-72
2022/01/05 03:10:06;;;;;;;9.15;1.60;;;3.30;99.90;;;;;;5087344;28;20040;-72
2022/01/05 03:12:32;;;;;;;11.20;1.77;;;3.30;99.90;;;;;;5093044;28;20524;-72
2022/01/05 03:14:58;;;;;;;11.48;1.95;;;3.20;99.90;;;;;;5081302;28;20077;-72
2022/01/05 03:17:23;;;;;;;7.43;2.03;;;3.30;99.90;;;;;;5100590;28;20435;-72
2022/01/05 03:19:49;;;;;;;11.75;1.98;;;3.40;99.90;;;;;;5096394;28;20056;-72
2022/01/05 03:22:14;;;;;;;5.30;1.23;;;3.40;99.90;;;;;;5130343;27;20131;-72
2022/01/05 03:24:40;;;;;;;8.10;1.98;;;3.30;99.90;;;;;;5110126;28;20395;-72
2022/01/05 03:27:06;;;;;;;15.15;2.83;;;3.30;99.90;;;;;;5126875;27;20053;-72
2022/01/05 03:29:32;;;;;;;8.85;2.42;;;3.30;99.90;;;;;;5092347;28;20032;-72
2022/01/05 03:31:57;;;;;;;11.98;2.17;;;3.50;99.90;;;;;;5076269;28;20048;-71
2022/01/05 03:34:23;;;;;;;13.70;1.88;;;3.50;99.90;;;;;;5109948;28;20070;-72
2022/01/05 03:36:49;;;;;;;11.48;1.95;;;3.50;99.90;;;;;;5108998;28;20043;-72
2022/01/05 03:39:15;;;;;;;5.45;1.00;;;3.50;99.90;;;;;;5109484;27;20492;-72
2022/01/05 03:41:42;;;;;;;6.55;1.88;;;3.60;99.90;;;;;;5109456;28;20439;-72
2022/01/05 03:44:07;;;;;;;15.65;2.65;;;3.60;99.90;;;;;;5081428;28;20042;-72
2022/01/05 03:46:33;;;;;;;13.18;2.38;;;3.60;99.90;;;;;;5126377;27;20389;-72
2022/01/05 03:48:59;;;;;;;14.80;2.10;;;3.60;99.90;;;;;;5094654;28;20085;-72
2022/01/05 03:51:26;;;;;;;11.35;2.00;;;3.70;99.90;;;;;;5086997;28;20079;-72
2022/01/05 03:53:51;;;;;;;13.23;1.85;;;3.70;99.90;;;;;;5102204;28;20491;-72
2022/01/05 03:56:17;;;;;;;14.55;2.28;;;3.70;99.90;;;;;;5095009;28;20052;-72
2022/01/05 03:58:44;;;;;;;9.82;1.40;;;3.60;99.90;;;;;;5086268;28;20145;-72
2022/01/05 04:01:09;;;;;;;11.93;2.35;;;3.60;99.90;;;;;;5092314;28;20075;-72
2022/01/05 04:03:35;;;;;;;11.85;1.52;;;3.60;99.90;;;;;;5126134;27;20070;-72
2022/01/05 04:06:00;;;;;;;14.25;1.88;;;3.70;99.90;;;;;;5092544;28;20498;-72
2022/01/05 04:08:26;;;;;;;9.38;1.77;;;3.70;99.90;;;;;;5075412;28;20032;-71
2022/01/05 04:10:51;;;;;;;9.02;2.20;;;3.80;99.90;;;;;;5142734;27;20046;-72
2022/01/05 04:13:18;;;;;;;8.43;2.03;;;3.80;99.90;;;;;;5130332;27;20036;-72
2022/01/05 04:15:43;;;;;;;15.63;2.28;;;3.70;99.90;;;;;;5109327;28;20423;-72
2022/01/05 04:18:09;;;;;;;11.32;2.53;;;3.70;99.90;;;;;;5100605;28;20085;-72
2022/01/05 04:20:35;;;;;;;11.15;2.20;;;3.90;99.90;;;;;;5091954;28;20071;-71
2022/01/05 04:23:00;;;;;;;15.35;2.33;;;3.80;99.90;;;;;;5086456;28;20032;-72
2022/01/05 04:25:26;;;;;;;12.50;2.10;;;3.90;99.90;;;;;;5147028;27;20054;-72
2022/01/05 04:27:52;;;;;;;12.48;1.55;;;3.90;99.90;;;;;;5138267;27;20036;-72
2022/01/05 04:30:17;;;;;;;13.68;1.80;;;3.90;99.90;;;;;;5076992;28;20043;-72
2022/01/05 04:32:43;;;;;;;10.00;1.45;;;4.00;99.90;;;;;;5111136;28;20039;-72
2022/01/05 04:35:12;;;;;;;13.52;2.47;;;4.00;99.90;;;;;;5145251;27;20042;-72
2022/01/05 04:37:38;;;;;;;11.60;1.55;;;4.00;99.90;;;;;;5076978;28;20040;-72
2022/01/05 04:40:04;;;;;;;12.60;1.88;;;4.10;99.90;;;;;;5083573;28;20046;-72
2022/01/05 04:42:30;;;;;;;10.60;1.98;;;4.10;99.90;;;;;;5144402;27;20501;-72
2022/01/05 04:44:55;;;;;;;9.13;1.85;;;4.10;99.90;;;;;;5078829;28;20101;-72
2022/01/05 04:47:22;;;;;;;8.77;1.55;;;4.10;99.90;;;;;;5097142;28;20040;-72
2022/01/05 04:49:48;;;;;;;8.95;1.70;;;4.20;99.90;;;;;;5116155;28;20039;-72
2022/01/05 04:52:13;;;;;;;9.13;1.65;;;4.20;99.90;;;;;;5087422;27;20450;-72
2022/01/05 04:54:39;;;;;;;9.90;1.52;;;4.10;99.90;;;;;;5099193;28;20044;-71
2022/01/05 04:57:06;;;;;;;9.98;1.75;;;4.10;99.90;;;;;;5098131;28;20048;-71
2022/01/05 04:59:32;;;;;;;7.70;1.33;;;4.10;99.90;;;;;;5098916;28;20038;-72
2022/01/05 05:01:58;;;;;;;5.35;1.13;;;4.10;99.90;;;;;;5117174;27;20035;-71
2022/01/05 05:04:24;;;;;;;6.30;1.48;;;4.20;99.90;;;;;;5080791;28;20438;-72
2022/01/05 05:06:50;;;;;;;10.82;2.67;;;4.20;99.90;;;;;;5090429;28;20042;-71
2022/01/05 05:09:16;;;;;;;9.40;1.30;;;4.30;99.90;;;;;;5115798;28;20055;-72
2022/01/05 05:11:42;;;;;;;9.50;1.50;;;4.30;99.90;;;;;;5095812;28;20395;-71
2022/01/05 05:14:09;;;;;;;5.95;1.33;;;4.20;99.90;;;;;;5114839;27;20035;-71
2022/01/05 05:16:35;;;;;;;10.38;2.83;;;4.20;99.90;;;;;;5098581;28;20031;-72
2022/01/05 05:19:00;;;;;;;8.90;1.73;;;4.20;99.90;;;;;;5098660;28;20035;-72
2022/01/05 05:21:26;;;;;;;10.80;1.50;;;4.30;99.90;;;;;;5114050;28;20032;-72
2022/01/05 05:23:51;;;;;;;13.23;1.35;;;4.20;99.90;;;;;;5116297;27;20043;-71
2022/01/05 05:26:17;;;;;;;12.10;2.22;;;4.30;99.90;;;;;;5095195;28;20119;-72
2022/01/05 05:28:43;;;;;;;6.93;1.23;;;4.30;99.90;;;;;;5095365;28;20048;-71
2022/01/05 05:31:08;;;;;;;10.48;1.38;;;4.20;99.90;;;;;;5107431;27;20040;-72
2022/01/05 05:33:34;;;;;;;11.95;1.80;;;4.30;99.90;;;;;;5114499;28;20039;-71
2022/01/05 05:35:59;;;;;;;8.75;2.03;;;4.30;99.90;;;;;;5121004;27;20048;-72
2022/01/05 05:38:25;;;;;;;10.93;1.88;;;4.20;99.90;;;;;;5095030;28;20047;-72
2022/01/05 05:40:51;;;;;;;14.45;2.28;;;4.20;99.90;;;;;;5115291;27;20063;-72
2022/01/05 05:43:16;;;;;;;10.35;1.70;;;4.30;99.90;;;;;;5088266;28;20044;-72
2022/01/05 05:45:42;;;;;;;8.70;1.63;;;4.30;99.90;;;;;;5091156;28;20073;-71
2022/01/05 05:48:07;;;;;;;15.60;2.20;;;4.30;99.90;;;;;;5128500;27;20488;-72
2022/01/05 05:50:33;;;;;;;12.40;2.03;;;4.40;99.90;;;;;;5111556;27;20035;-72
2022/01/05 05:52:59;;;;;;;16.27;1.95;;;4.50;99.90;;;;;;5085599;28;20513;-72
2022/01/05 05:55:24;;;;;;;12.95;1.65;;;4.50;99.90;;;;;;5127820;27;20036;-72
2022/01/05 05:57:50;;;;;;;13.57;2.28;;;4.60;99.90;;;;;;5094562;28;20037;-72
2022/01/05 06:00:16;;;;;;;7.53;1.42;;;4.60;99.90;;;;;;5079512;27;20040;-72
2022/01/05 06:02:42;;;;;;;9.63;2.78;;;4.60;99.90;;;;;;5113137;27;20104;-72
2022/01/05 06:05:08;;;;;;;11.05;2.10;;;4.60;99.90;;;;;;5148299;27;20042;-72
2022/01/05 06:07:33;;;;;;;10.20;1.50;;;4.60;99.90;;;;;;5095184;27;20039;-72
2022/01/05 06:09:59;;;;;;;14.65;2.35;;;4.60;99.90;;;;;;5116046;27;20067;-72
2022/01/05 06:12:26;;;;;;;11.45;2.72;;;4.50;99.90;;;;;;5107041;27;20407;-72
2022/01/05 06:14:51;;;;;;;15.77;2.70;;;4.50;99.90;;;;;;5082445;28;20197;-72
2022/01/05 06:17:17;;;;;;;13.48;1.95;;;4.40;99.90;;;;;;5092778;27;20028;-72
2022/01/05 06:19:43;;;;;;;10.02;1.80;;;4.60;99.90;;;;;;5087954;28;20126;-72
2022/01/05 06:22:08;;;;;;;11.07;1.90;;;4.50;99.90;;;;;;5110948;27;20499;-72
2022/01/05 06:24:35;;;;;;;8.50;1.30;;;4.50;99.90;;;;;;5073904;28;20399;-72
2022/01/05 06:27:01;;;;;;;6.55;1.48;;;4.60;99.90;;;;;;5102511;28;20489;-73
2022/01/05 06:29:26;;;;;;;9.88;1.55;;;4.70;99.90;;;;;;5106282;28;20046;-72
2022/01/05 06:31:52;;;;;;;6.03;1.20;;;4.60;99.90;;;;;;5095639;28;20039;-72
2022/01/05 06:34:18;;;;;;;11.45;1.38;;;4.60;99.90;;;;;;5095801;28;20040;-72
2022/01/05 06:36:43;;;;;;;7.45;1.50;;;4.50;99.90;;;;;;5094966;28;20044;-72
2022/01/05 06:39:09;;;;;;;6.47;1.40;;;4.50;99.90;;;;;;5109175;28;20496;-73
2022/01/05 06:41:34;;;;;;;9.50;1.60;;;4.40;99.90;;;;;;5075450;28;20497;-72
2022/01/05 06:44:00;;;;;;;8.10;1.33;;;4.50;99.90;;;;;;5110022;27;20042;-72
2022/01/05 06:46:25;;;;;;;11.60;1.98;;;4.60;99.90;;;;;;5080623;28;20070;-72
2022/01/05 06:48:51;;;;;;;8.95;1.70;;;4.50;99.90;;;;;;5105420;28;20043;-72
2022/01/05 06:51:16;;;;;;;13.30;1.80;;;4.50;99.90;;;;;;5110196;28;20114;-73
2022/01/05 06:53:42;;;;;;;12.70;2.05;;;4.60;99.90;;;;;;5131256;27;20108;-72
2022/01/05 06:56:08;;;;;;;8.40;2.03;;;4.50;99.90;;;;;;5096556;28;20039;-73
2022/01/05 06:58:34;;;;;;;10.77;1.77;;;4.70;99.90;;;;;;5141663;27;20443;-73
2022/01/05 07:00:59;;;;;;;9.20;1.95;;;4.70;99.90;;;;;;5105019;28;20059;-73
2022/01/05 07:03:25;;;;;;;12.98;1.75;;;4.60;99.90;;;;;;5096509;28;20070;-73
2022/01/05 07:05:51;;;;;;;13.88;1.45;;;4.60;99.90;;;;;;5111766;28;20024;-72
2022/01/05 07:08:17;;;;;;;8.50;1.33;;;4.60;99.90;;;;;;5110107;28;20047;-73
2022/01/05 07:10:42;;;;;;;9.02;1.55;;;4.60;99.90;;;;;;5087372;28;20433;-72
2022/01/05 07:13:08;;;;;;;5.30;1.30;;;4.60;99.90;;;;;;5142072;27;20043;-72
2022/01/05 07:15:33;;;;;;;5.05;1.40;;;4.60;99.90;;;;;;5125575;27;20081;-73
2022/01/05 07:17:59;;;;;;;10.52;1.67;;;4.60;99.90;;;;;;5094881;28;20100;-72
2022/01/05 07:20:25;;;;;;;8.77;1.40;;;4.60;99.90;;;;;;5109429;27;20080;-72
2022/01/05 07:22:50;;;;;;;6.40;0.88;;;4.60;99.90;;;;;;5112360;28;20060;-72
2022/01/05 07:25:16;;;;;;;6.68;1.88;;;4.60;99.90;;;;;;5094951;28;20038;-73
2022/01/05 07:27:42;;;;;;;5.90;1.00;;;4.60;99.90;;;;;;5095403;28;20088;-72
2022/01/05 07:30:09;;;;;;;8.77;1.88;;;4.80;99.90;;;;;;5111839;27;20039;-73
2022/01/05 07:32:35;;;;;;;6.55;1.00;;;4.80;99.90;;;;;;5109580;27;20078;-72
2022/01/05 07:35:01;;;;;;;9.48;1.20;;;4.80;99.90;;;;;;5108856;27;20092;-73
2022/01/05 07:37:26;;;;;;;5.22;0.77;;;4.80;99.90;;;;;;5095726;28;20040;-73
2022/01/05 07:39:52;;;;;;;4.80;1.27;;;4.80;99.90;;;;;;5089954;28;20085;-73
2022/01/05 07:42:18;;;;;;;5.45;0.95;;;4.90;99.90;;;;;;5092482;28;20480;-73
2022/01/05 07:44:43;;;;;;;9.05;1.30;;;4.70;99.90;;;;;;5129068;27;20038;-73
2022/01/05 07:47:10;;;;;;;1.10;0.40;;;4.70;99.90;;;;;;5147302;27;20048;-73
2022/01/05 07:49:37;;;;;;;6.50;1.77;;;4.80;99.90;;;;;;5112181;28;20407;-73
2022/01/05 07:52:03;;;;;;;10.00;1.40;;;4.80;99.90;;;;;;5095739;28;20039;-73
2022/01/05 07:54:29;;;;;;;6.10;1.23;;;4.80;99.90;;;;;;5094810;28;20039;-73
2022/01/05 07:56:55;;;;;;;9.48;1.55;;;4.90;99.90;;;;;;5112641;28;20134;-73
2022/01/05 07:59:20;;;;;;;5.53;1.25;;;4.80;99.90;;;;;;5109986;28;20423;-73
2022/01/05 08:01:46;;;;;;;6.03;1.00;;;4.80;99.90;;;;;;5146919;27;20459;-73
2022/01/05 08:04:11;;;;;;;7.75;2.05;;;5.00;99.90;;;;;;5086964;28;20032;-73
2022/01/05 08:06:37;;;;;;;5.90;1.20;;;5.00;99.90;;;;;;5092499;28;20484;-73
2022/01/05 08:09:03;;;;;;;7.32;1.02;;;4.90;99.90;;;;;;5080864;28;20092;-73
2022/01/05 08:11:28;;;;;;;7.10;1.13;;;5.00;99.90;;;;;;5093019;28;20032;-73
2022/01/05 08:13:54;;;;;;;7.28;1.40;;;5.10;99.90;;;;;;5095548;28;20040;-73
2022/01/05 08:16:20;;;;;;;8.35;1.60;;;5.00;99.90;;;;;;5131426;27;20044;-72
2022/01/05 08:18:45;;;;;;;4.55;0.80;;;5.10;99.90;;;;;;5108758;28;20036;-71
2022/01/05 08:21:12;;;;;;;8.85;1.42;;;5.10;99.90;;;;;;5112166;28;20044;-71
2022/01/05 08:23:37;;;;;;;8.35;1.20;;;5.10;99.90;;;;;;5112301;28;20039;-72
2022/01/05 08:26:04;;;;;;;9.38;1.30;;;5.10;99.90;;;;;;5094492;28;20059;-72
2022/01/05 08:28:31;;;;;;;6.95;1.40;;;5.10;99.90;;;;;;5095584;28;20028;-72
2022/01/05 08:30:57;;;;;;;12.15;1.52;;;5.10;99.90;;;;;;5107507;28;20080;-72
2022/01/05 08:33:23;;;;;;;6.82;0.90;;;5.10;99.90;;;;;;5112263;28;20036;-72
2022/01/05 08:35:48;;;;;;;10.73;1.70;;;5.10;99.90;;;;;;5091643;28;20515;-72
2022/01/05 08:38:15;;;;;;;9.88;1.33;;;5.10;99.90;;;;;;5112190;28;20458;-71
2022/01/05 08:40:41;;;;;;;8.30;1.08;;;5.10;99.90;;;;;;5092509;28;20488;-76
2022/01/05 08:43:08;;;;;;;10.93;1.50;;;5.20;99.90;;;;;;5110703;28;20046;-73
2022/01/05 08:45:34;;;;;;;9.57;1.15;;;5.20;99.90;;;;;;5108615;28;20387;-73
2022/01/05 08:48:00;;;;;;;11.68;1.30;;;5.20;99.90;;;;;;5110446;28;20051;-73
2022/01/05 08:50:32;;;;;;;9.10;2.63;;;5.20;99.90;;;;;;5099599;28;20032;-73
2022/01/05 08:52:58;;;;;;;13.60;2.17;;;5.30;99.90;;;;;;5139140;27;20046;-73
2022/01/05 08:55:29;;;;;;;6.03;1.02;;;5.30;99.90;;;;;;5092076;28;20376;-73
2022/01/05 08:57:55;;;;;;;14.90;1.85;;;5.30;99.90;;;;;;5105144;28;20094;-73
2022/01/05 09:00:21;;;;;;;10.93;1.65;;;5.30;99.90;;;;;;5107453;28;20043;-73
2022/01/05 09:02:46;;;;;;;10.98;1.63;;;5.30;99.90;;;;;;5093736;28;20423;-73
2022/01/05 09:05:12;;;;;;;9.18;1.60;;;5.30;99.90;;;;;;5104485;28;20028;-73
2022/01/05 09:07:38;;;;;;;8.43;1.23;;;5.50;99.90;;;;;;5074612;28;20531;-73
2022/01/05 09:10:05;;;;;;;11.95;2.50;;;5.60;99.90;;;;;;5093820;28;20067;-73
2022/01/05 09:12:32;;;;;;;6.88;1.25;;;5.70;99.90;;;;;;5085275;28;20130;-73
2022/01/05 09:14:58;;;;;;;11.77;1.40;;;5.70;99.90;;;;;;5111048;28;20038;-72
2022/01/05 09:17:25;;;;;;;10.82;1.48;;;5.70;99.90;;;;;;5094520;28;20044;-72
2022/01/05 09:19:51;;;;;;;8.95;1.30;;;5.70;99.90;;;;;;5111634;28;20524;-72
2022/01/05 09:22:16;;;;;;;5.85;1.52;;;5.70;99.90;;;;;;5128935;28;20067;-72
2022/01/05 09:24:42;;;;;;;10.32;1.42;;;5.70;99.90;;;;;;5140141;27;20035;-72
2022/01/05 09:27:07;;;;;;;11.05;1.60;;;5.70;99.90;;;;;;5148564;27;20036;-72
2022/01/05 09:29:33;;;;;;;8.35;1.30;;;5.70;99.90;;;;;;5113586;28;20551;-72
2022/01/05 09:32:04;;;;;;;9.52;1.27;;;5.60;99.90;;;;;;5112927;28;20039;-72
2022/01/05 09:34:33;;;;;;;8.13;1.20;;;5.60;99.90;;;;;;5082720;28;20361;-71
2022/01/05 09:37:06;;;;;;;12.98;1.60;;;5.60;99.90;;;;;;5130083;27;20032;-72
2022/01/05 09:42:16;;;;;;;10.57;1.70;;;5.70;99.90;;;;;;5104738;27;20040;-72
2022/01/05 09:44:44;;;;;;;12.45;1.60;;;5.70;99.90;;;;;;5125674;27;20399;-71
2022/01/05 09:47:37;;;;;;;10.82;1.42;;;5.80;99.90;;;;;;5103765;28;20048;-72
2022/01/05 09:50:07;;;;;;;10.38;1.52;;;5.80;99.90;;;;;;5123237;27;20046;-72
2022/01/05 09:52:34;;;;;;;7.18;1.33;;;5.90;99.90;;;;;;5130646;27;20074;-71
2022/01/05 09:55:01;;;;;;;11.40;1.80;;;5.90;99.90;;;;;;5113720;28;20042;-71
2022/01/05 09:57:28;;;;;;;10.40;1.95;;;6.00;99.90;;;;;;5096612;28;20028;-72
2022/01/05 09:59:56;;;;;;;15.57;1.83;;;6.00;99.90;;;;;;5095393;28;20039;-71
2022/01/05 10:02:22;;;;;;;12.80;2.13;;;6.00;99.90;;;;;;5113136;28;20118;-71
2022/01/05 10:04:48;;;;;;;7.15;1.55;;;6.00;99.90;;;;;;5108577;28;20039;-71
2022/01/05 10:07:15;;;;;;;9.00;1.80;;;6.10;99.90;;;;;;5096534;28;20042;-72
2022/01/05 10:09:43;;;;;;;9.50;1.20;;;6.20;99.90;;;;;;5096549;28;20104;-71
2022/01/05 10:12:10;;;;;;;10.73;1.50;;;6.20;99.90;;;;;;5113308;28;20038;-71
2022/01/05 10:14:40;;;;;;;12.45;1.90;;;6.20;99.90;;;;;;5083635;28;20369;-71
2022/01/05 10:17:15;;;;;;;12.57;2.90;;;6.30;99.90;;;;;;5111944;28;20035;-71
2022/01/05 10:19:42;;;;;;;16.33;2.08;;;6.30;99.90;;;;;;5099271;28;20082;-71
2022/01/05 10:22:26;;;;;;;8.07;1.60;;;6.30;99.90;;;;;;5101479;28;20521;-72
2022/01/05 10:24:54;;;;;;;12.63;2.20;;;6.40;99.90;;;;;;5095236;28;20046;-71
2022/01/05 10:27:21;;;;;;;11.48;1.70;;;6.40;99.90;;;;;;5103653;27;20504;-71
2022/01/05 10:30:07;;;;;;;17.50;2.13;;;6.50;99.90;;;;;;5099137;28;20047;-71
2022/01/05 10:32:34;;;;;;;15.15;2.30;;;6.50;99.90;;;;;;5100498;28;20097;-71
2022/01/05 10:35:15;;;;;;;14.07;2.03;;;6.60;99.90;;;;;;5107092;28;20039;-71
2022/01/05 10:37:46;;;;;;;13.10;2.08;;;6.70;99.90;;;;;;5084052;28;20043;-71
2022/01/05 10:40:20;;;;;;;11.55;2.25;;;6.80;99.90;;;;;;5078449;28;20043;-71
2022/01/05 10:42:54;;;;;;;14.10;2.00;;;6.90;99.90;;;;;;5097246;28;20089;-71
2022/01/05 10:45:40;;;;;;;16.75;2.35;;;7.00;99.90;;;;;;5096902;28;20059;-71
2022/01/05 10:48:18;;;;;;;13.95;2.33;;;7.00;99.90;;;;;;5083129;28;20047;-71
2022/01/05 10:50:47;;;;;;;11.38;1.90;;;7.00;99.90;;;;;;5087174;28;20032;-71
2022/01/05 10:53:15;;;;;;;12.13;1.83;;;7.00;99.90;;;;;;5080935;28;20093;-71
2022/01/05 10:55:43;;;;;;;9.38;2.00;;;7.20;99.90;;;;;;5095533;28;20031;-71
2022/01/05 10:58:17;;;;;;;14.30;2.55;;;7.30;99.90;;;;;;5113666;28;20048;-71
2022/01/05 11:00:54;;;;;;;13.27;1.60;;;7.30;99.90;;;;;;5099758;28;20038;-71
2022/01/05 11:03:35;;;;;;;13.25;2.45;;;7.50;99.90;;;;;;5111195;28;20082;-71
2022/01/05 11:06:04;;;;;;;11.45;2.25;;;7.50;99.90;;;;;;5090816;28;20110;-71
2022/01/05 11:08:46;;;;;;;14.38;2.15;;;7.50;99.90;;;;;;5109806;28;20044;-71
2022/01/05 11:11:51;;;;;;;14.65;2.05;;;7.60;99.90;;;;;;5112363;27;20045;-71
2022/01/05 11:14:35;;;;;;;13.85;2.05;;;7.60;99.90;;;;;;5033461;28;20044;-71
2022/01/05 11:17:06;;;;;;;17.08;2.53;;;7.50;99.90;;;;;;5059588;28;20103;-71
2022/01/05 11:19:35;;;;;;;16.53;2.77;;;7.70;99.90;;;;;;5071456;27;20123;-71
2022/01/05 11:22:16;;;;;;;17.17;2.70;;;7.70;99.90;;;;;;5112630;27;20039;-71
2022/01/05 11:24:42;;;;;;;13.18;2.33;;;7.70;99.90;;;;;;5111340;28;20035;-71
2022/01/05 11:27:11;;;;;;;17.42;3.70;;;7.80;99.90;;;;;;5112036;28;20039;-71
2022/01/05 11:29:37;;;;;;;14.45;1.77;;;7.80;99.90;;;;;;5103254;27;20044;-71
2022/01/05 11:32:04;;;;;;;15.57;2.70;;;7.70;99.90;;;;;;5134146;27;20506;-71
2022/01/05 11:34:31;;;;;;;18.58;2.60;;;7.70;99.90;;;;;;5102982;28;20044;-71
2022/01/05 11:36:58;;;;;;;14.23;2.13;;;7.70;99.90;;;;;;5092609;28;20072;-71
2022/01/05 11:39:24;;;;;;;13.65;2.55;;;7.70;99.90;;;;;;5101159;27;20110;-71
2022/01/05 11:41:52;;;;;;;13.10;2.47;;;7.80;99.90;;;;;;5111597;27;20073;-71
2022/01/05 11:44:19;;;;;;;11.45;1.95;;;7.70;99.90;;;;;;5106031;27;20089;-71
2022/01/05 11:46:46;;;;;;;15.00;2.47;;;7.80;99.90;;;;;;5132510;27;20133;-71
2022/01/05 11:49:15;;;;;;;17.00;3.35;;;7.80;99.90;;;;;;5096849;28;20050;-71
2022/01/05 11:51:45;;;;;;;17.45;2.30;;;7.90;99.90;;;;;;5092641;27;20074;-71
2022/01/05 11:54:30;;;;;;;14.55;2.10;;;7.80;99.90;;;;;;5075177;28;20044;-71
2022/01/05 11:57:10;;;;;;;16.55;3.17;;;7.80;99.90;;;;;;5102319;27;20066;-71
2022/01/05 11:59:39;;;;;;;12.35;2.20;;;7.80;99.90;;;;;;5112469;28;20391;-71
2022/01/05 12:02:15;;;;;;;12.30;2.03;;;7.80;99.90;;;;;;5113067;27;20063;-71
2022/01/05 12:04:59;;;;;;;15.88;2.55;;;7.80;99.90;;;;;;5094857;28;20038;-71
2022/01/05 12:07:35;;;;;;;11.23;1.88;;;7.80;99.90;;;;;;5111555;28;20035;-71
2022/01/05 12:10:10;;;;;;;13.82;2.58;;;7.80;99.90;;;;;;5095079;28;20043;-71
2022/01/05 12:12:36;;;;;;;17.00;2.38;;;7.80;99.90;;;;;;5111606;28;20051;-71
2022/01/05 12:15:04;;;;;;;13.63;2.10;;;7.80;99.90;;;;;;5122827;27;20061;-71
2022/01/05 12:17:30;;;;;;;15.05;2.78;;;7.80;99.90;;;;;;5112712;27;20039;-72
2022/01/05 12:19:56;;;;;;;15.40;2.42;;;7.80;99.90;;;;;;5117365;27;20035;-71
2022/01/05 12:22:27;;;;;;;10.05;1.65;;;7.80;99.90;;;;;;5146979;27;20122;-71
2022/01/05 12:25:04;;;;;;;11.50;2.05;;;7.80;99.90;;;;;;5094353;28;20445;-71
2022/01/05 12:27:40;;;;;;;11.88;2.30;;;7.80;99.90;;;;;;5112324;28;20044;-71
2022/01/05 12:30:18;;;;;;;13.30;2.03;;;7.80;99.90;;;;;;5131342;27;20399;-71
2022/01/05 12:32:46;;;;;;;14.75;2.05;;;7.70;99.90;;;;;;5109191;28;20381;-71
2022/01/05 12:35:17;;;;;;;15.85;2.88;;;7.70;99.90;;;;;;5122955;28;20122;-71
2022/01/05 12:37:58;;;;;;;14.73;2.00;;;7.80;99.90;;;;;;5094747;28;20031;-71
2022/01/05 12:40:32;;;;;;;16.42;2.13;;;7.80;99.90;;;;;;5145623;27;20101;-71
2022/01/05 12:43:10;;;;;;;15.68;2.08;;;7.90;99.90;;;;;;5110532;28;20384;-71
2022/01/05 12:45:45;;;;;;;19.60;2.70;;;7.90;99.90;;;;;;5145909;27;20059;-71
2022/01/05 12:48:33;;;;;;;14.48;2.25;;;7.90;99.90;;;;;;5091513;28;20056;-71
2022/01/05 12:51:17;;;;;;;16.60;2.78;;;7.80;99.90;;;;;;5107131;28;20511;-71
2022/01/05 12:53:55;;;;;;;12.68;2.97;;;7.80;99.90;;;;;;5074921;28;20051;-71
2022/01/05 12:56:28;;;;;;;11.90;2.33;;;7.80;99.90;;;;;;5100578;28;20568;-72
2022/01/05 12:58:54;;;;;;;;;;;7.70;99.90;;;;;;5100748;27;20075;-72
2022/01/05 13:01:22;;;;;;;16.90;2.15;;;7.70;99.90;;;;;;5095765;28;20375;-72